sensor_id;sensor_type;location;lat;lon;timestamp;P1;durP1;ratioP1;P2;durP2;ratioP2
21886;SDS011;11108;49.988;8.182;2023-08-01T00:01:41;2.20;;;2.10;;
21886;SDS011;11108;49.988;8.182;2023-08-01T00:04:06;2.70;;;2.50;;
21886;SDS011;11108;49.988;8.182;2023-08-01T00:06:31;2.80;;;2.60;;
21886;SDS011;11108;49.988;8.182;2023-08-01T00:08:57;2.20;;;2.00;;
21886;SDS011;11108;49.988;8.182;2023-08-01T00:11:22;2.47;;;2.27;;
21886;SDS011;11108;49.988;8.182;2023-08-01T00:13:47;2.60;;;2.00;;
21886;SDS011;11108;49.988;8.182;2023-08-01T00:16:12;2.07;;;1.97;;
21886;SDS011;11108;49.988;8.182;2023-08-01T00:18:37;2.40;;;2.20;;
21886;SDS011;11108;49.988;8.182;2023-08-01T00:21:03;2.80;;;2.10;;
21886;SDS011;11108;49.988;8.182;2023-08-01T00:23:31;2.08;;;1.98;;
21886;SDS011;11108;49.988;8.182;2023-08-01T00:25:56;2.07;;;1.93;;
21886;SDS011;11108;49.988;8.182;2023-08-01T00:28:22;2.10;;;2.00;;
21886;SDS011;11108;49.988;8.182;2023-08-01T00:30:47;2.20;;;2.00;;
21886;SDS011;11108;49.988;8.182;2023-08-01T00:33:12;2.00;;;1.90;;
21886;SDS011;11108;49.988;8.182;2023-08-01T00:35:38;2.13;;;2.03;;
21886;SDS011;11108;49.988;8.182;2023-08-01T00:38:03;2.60;;;2.40;;
21886;SDS011;11108;49.988;8.182;2023-08-01T00:40:31;2.10;;;2.00;;
21886;SDS011;11108;49.988;8.182;2023-08-01T00:42:57;2.50;;;2.30;;
21886;SDS011;11108;49.988;8.182;2023-08-01T00:45:22;2.33;;;2.13;;
21886;SDS011;11108;49.988;8.182;2023-08-01T00:47:49;2.30;;;2.10;;
21886;SDS011;11108;49.988;8.182;2023-08-01T00:50:15;2.60;;;2.27;;
21886;SDS011;11108;49.988;8.182;2023-08-01T00:52:40;2.20;;;2.10;;
21886;SDS011;11108;49.988;8.182;2023-08-01T00:55:06;2.50;;;2.40;;
21886;SDS011;11108;49.988;8.182;2023-08-01T00:57:31;2.22;;;2.13;;
21886;SDS011;11108;49.988;8.182;2023-08-01T00:59:57;2.50;;;2.30;;
21886;SDS011;11108;49.988;8.182;2023-08-01T01:02:22;2.43;;;2.33;;
21886;SDS011;11108;49.988;8.182;2023-08-01T01:04:47;2.72;;;2.53;;
21886;SDS011;11108;49.988;8.182;2023-08-01T01:07:13;2.43;;;2.13;;
21886;SDS011;11108;49.988;8.182;2023-08-01T01:09:40;2.58;;;2.38;;
21886;SDS011;11108;49.988;8.182;2023-08-01T01:12:05;2.10;;;2.00;;
21886;SDS011;11108;49.988;8.182;2023-08-01T01:14:31;2.33;;;2.20;;
21886;SDS011;11108;49.988;8.182;2023-08-01T01:16:57;2.40;;;2.20;;
21886;SDS011;11108;49.988;8.182;2023-08-01T01:19:22;2.30;;;2.20;;
21886;SDS011;11108;49.988;8.182;2023-08-01T01:21:47;2.67;;;2.43;;
21886;SDS011;11108;49.988;8.182;2023-08-01T01:24:13;3.07;;;2.27;;
21886;SDS011;11108;49.988;8.182;2023-08-01T01:26:39;2.20;;;2.10;;
21886;SDS011;11108;49.988;8.182;2023-08-01T01:29:05;2.60;;;2.40;;
21886;SDS011;11108;49.988;8.182;2023-08-01T01:31:31;2.60;;;2.40;;
21886;SDS011;11108;49.988;8.182;2023-08-01T01:33:57;2.33;;;2.13;;
21886;SDS011;11108;49.988;8.182;2023-08-01T01:36:22;2.70;;;2.50;;
21886;SDS011;11108;49.988;8.182;2023-08-01T01:38:47;2.07;;;1.97;;
21886;SDS011;11108;49.988;8.182;2023-08-01T01:41:13;2.50;;;2.33;;
21886;SDS011;11108;49.988;8.182;2023-08-01T01:43:38;2.40;;;2.30;;
21886;SDS011;11108;49.988;8.182;2023-08-01T01:46:03;2.63;;;2.43;;
21886;SDS011;11108;49.988;8.182;2023-08-01T01:48:28;2.80;;;2.30;;
21886;SDS011;11108;49.988;8.182;2023-08-01T01:50:54;2.43;;;2.23;;
21886;SDS011;11108;49.988;8.182;2023-08-01T01:53:19;2.60;;;2.40;;
21886;SDS011;11108;49.988;8.182;2023-08-01T01:55:44;2.00;;;1.90;;
21886;SDS011;11108;49.988;8.182;2023-08-01T01:58:09;2.53;;;2.33;;
21886;SDS011;11108;49.988;8.182;2023-08-01T02:00:34;2.50;;;2.30;;
21886;SDS011;11108;49.988;8.182;2023-08-01T02:03:00;2.60;;;2.37;;
21886;SDS011;11108;49.988;8.182;2023-08-01T02:05:27;2.40;;;2.20;;
21886;SDS011;11108;49.988;8.182;2023-08-01T02:07:52;2.30;;;2.20;;
21886;SDS011;11108;49.988;8.182;2023-08-01T02:10:18;2.60;;;2.50;;
21886;SDS011;11108;49.988;8.182;2023-08-01T02:12:43;2.10;;;2.00;;
21886;SDS011;11108;49.988;8.182;2023-08-01T02:15:08;2.47;;;2.27;;
21886;SDS011;11108;49.988;8.182;2023-08-01T02:17:33;2.42;;;2.30;;
21886;SDS011;11108;49.988;8.182;2023-08-01T02:19:59;2.30;;;2.10;;
21886;SDS011;11108;49.988;8.182;2023-08-01T02:22:24;2.50;;;2.40;;
21886;SDS011;11108;49.988;8.182;2023-08-01T02:24:50;2.20;;;2.10;;
21886;SDS011;11108;49.988;8.182;2023-08-01T02:27:15;2.10;;;2.00;;
21886;SDS011;11108;49.988;8.182;2023-08-01T02:29:40;2.80;;;2.50;;
21886;SDS011;11108;49.988;8.182;2023-08-01T02:32:05;2.73;;;2.53;;
21886;SDS011;11108;49.988;8.182;2023-08-01T02:34:31;2.37;;;2.20;;
21886;SDS011;11108;49.988;8.182;2023-08-01T02:36:56;2.80;;;2.60;;
21886;SDS011;11108;49.988;8.182;2023-08-01T02:39:21;2.23;;;2.03;;
21886;SDS011;11108;49.988;8.182;2023-08-01T02:41:46;2.33;;;2.13;;
21886;SDS011;11108;49.988;8.182;2023-08-01T02:44:11;2.20;;;2.10;;
21886;SDS011;11108;49.988;8.182;2023-08-01T02:46:38;2.33;;;2.17;;
21886;SDS011;11108;49.988;8.182;2023-08-01T02:49:03;2.30;;;2.10;;
21886;SDS011;11108;49.988;8.182;2023-08-01T02:51:28;2.60;;;2.40;;
21886;SDS011;11108;49.988;8.182;2023-08-01T02:53:53;2.47;;;2.30;;
21886;SDS011;11108;49.988;8.182;2023-08-01T02:56:18;2.33;;;2.17;;
21886;SDS011;11108;49.988;8.182;2023-08-01T02:58:43;2.50;;;2.30;;
21886;SDS011;11108;49.988;8.182;2023-08-01T03:01:09;2.30;;;2.13;;
21886;SDS011;11108;49.988;8.182;2023-08-01T03:03:35;2.63;;;2.47;;
21886;SDS011;11108;49.988;8.182;2023-08-01T03:06:01;2.42;;;2.15;;
21886;SDS011;11108;49.988;8.182;2023-08-01T03:08:26;2.27;;;2.17;;
21886;SDS011;11108;49.988;8.182;2023-08-01T03:10:51;1.97;;;1.87;;
21886;SDS011;11108;49.988;8.182;2023-08-01T03:13:17;2.53;;;2.27;;
21886;SDS011;11108;49.988;8.182;2023-08-01T03:15:42;2.67;;;2.10;;
21886;SDS011;11108;49.988;8.182;2023-08-01T03:18:07;1.83;;;1.73;;
21886;SDS011;11108;49.988;8.182;2023-08-01T03:20:32;1.92;;;1.83;;
21886;SDS011;11108;49.988;8.182;2023-08-01T03:22:57;1.80;;;1.70;;
21886;SDS011;11108;49.988;8.182;2023-08-01T03:25:22;2.93;;;1.63;;
21886;SDS011;11108;49.988;8.182;2023-08-01T03:27:48;2.07;;;1.97;;
21886;SDS011;11108;49.988;8.182;2023-08-01T03:30:13;1.87;;;1.77;;
21886;SDS011;11108;49.988;8.182;2023-08-01T03:32:39;1.80;;;1.70;;
21886;SDS011;11108;49.988;8.182;2023-08-01T03:35:05;2.20;;;2.10;;
21886;SDS011;11108;49.988;8.182;2023-08-01T03:37:30;1.98;;;1.88;;
21886;SDS011;11108;49.988;8.182;2023-08-01T03:39:55;1.80;;;1.70;;
21886;SDS011;11108;49.988;8.182;2023-08-01T03:42:20;2.00;;;1.90;;
21886;SDS011;11108;49.988;8.182;2023-08-01T03:44:46;1.80;;;1.70;;
21886;SDS011;11108;49.988;8.182;2023-08-01T03:47:11;1.90;;;1.80;;
21886;SDS011;11108;49.988;8.182;2023-08-01T03:49:36;1.60;;;1.50;;
21886;SDS011;11108;49.988;8.182;2023-08-01T03:52:01;1.77;;;1.67;;
21886;SDS011;11108;49.988;8.182;2023-08-01T03:54:26;1.80;;;1.70;;
21886;SDS011;11108;49.988;8.182;2023-08-01T03:56:52;1.80;;;1.63;;
21886;SDS011;11108;49.988;8.182;2023-08-01T03:59:17;2.00;;;1.90;;
21886;SDS011;11108;49.988;8.182;2023-08-01T04:01:42;1.70;;;1.60;;
21886;SDS011;11108;49.988;8.182;2023-08-01T04:04:08;2.17;;;2.00;;
21886;SDS011;11108;49.988;8.182;2023-08-01T04:06:34;1.90;;;1.80;;
21886;SDS011;11108;49.988;8.182;2023-08-01T04:08:59;1.60;;;1.50;;
21886;SDS011;11108;49.988;8.182;2023-08-01T04:11:25;1.80;;;1.70;;
21886;SDS011;11108;49.988;8.182;2023-08-01T04:13:50;1.70;;;1.60;;
21886;SDS011;11108;49.988;8.182;2023-08-01T04:16:15;1.90;;;1.80;;
21886;SDS011;11108;49.988;8.182;2023-08-01T04:18:40;1.53;;;1.43;;
21886;SDS011;11108;49.988;8.182;2023-08-01T04:21:06;1.63;;;1.53;;
21886;SDS011;11108;49.988;8.182;2023-08-01T04:23:32;1.80;;;1.70;;
21886;SDS011;11108;49.988;8.182;2023-08-01T04:25:58;1.93;;;1.80;;
21886;SDS011;11108;49.988;8.182;2023-08-01T04:28:24;1.60;;;1.50;;
21886;SDS011;11108;49.988;8.182;2023-08-01T04:30:50;1.70;;;1.60;;
21886;SDS011;11108;49.988;8.182;2023-08-01T04:33:15;1.63;;;1.53;;
21886;SDS011;11108;49.988;8.182;2023-08-01T04:35:40;1.70;;;1.60;;
21886;SDS011;11108;49.988;8.182;2023-08-01T04:38:05;1.70;;;1.60;;
21886;SDS011;11108;49.988;8.182;2023-08-01T04:40:31;1.40;;;1.30;;
21886;SDS011;11108;49.988;8.182;2023-08-01T04:42:56;1.67;;;1.58;;
21886;SDS011;11108;49.988;8.182;2023-08-01T04:45:21;1.73;;;1.63;;
21886;SDS011;11108;49.988;8.182;2023-08-01T04:47:46;1.80;;;1.70;;
21886;SDS011;11108;49.988;8.182;2023-08-01T04:50:11;1.43;;;1.37;;
21886;SDS011;11108;49.988;8.182;2023-08-01T04:52:37;1.70;;;1.60;;
21886;SDS011;11108;49.988;8.182;2023-08-01T04:55:02;1.40;;;1.40;;
21886;SDS011;11108;49.988;8.182;2023-08-01T04:57:28;1.33;;;1.33;;
21886;SDS011;11108;49.988;8.182;2023-08-01T04:59:53;1.37;;;1.27;;
21886;SDS011;11108;49.988;8.182;2023-08-01T05:02:18;1.63;;;1.53;;
21886;SDS011;11108;49.988;8.182;2023-08-01T05:04:43;1.67;;;1.58;;
21886;SDS011;11108;49.988;8.182;2023-08-01T05:07:09;1.50;;;1.40;;
21886;SDS011;11108;49.988;8.182;2023-08-01T05:09:34;1.60;;;1.50;;
21886;SDS011;11108;49.988;8.182;2023-08-01T05:11:59;1.60;;;1.42;;
21886;SDS011;11108;49.988;8.182;2023-08-01T05:14:24;1.65;;;1.45;;
21886;SDS011;11108;49.988;8.182;2023-08-01T05:16:49;1.67;;;1.57;;
21886;SDS011;11108;49.988;8.182;2023-08-01T05:19:14;1.20;;;1.20;;
21886;SDS011;11108;49.988;8.182;2023-08-01T05:21:40;1.30;;;1.30;;
21886;SDS011;11108;49.988;8.182;2023-08-01T05:24:05;1.10;;;1.10;;
21886;SDS011;11108;49.988;8.182;2023-08-01T05:26:30;1.50;;;1.47;;
21886;SDS011;11108;49.988;8.182;2023-08-01T05:28:55;1.45;;;1.17;;
21886;SDS011;11108;49.988;8.182;2023-08-01T05:31:20;1.23;;;1.23;;
21886;SDS011;11108;49.988;8.182;2023-08-01T05:33:46;1.65;;;1.42;;
21886;SDS011;11108;49.988;8.182;2023-08-01T05:36:11;1.10;;;1.10;;
21886;SDS011;11108;49.988;8.182;2023-08-01T05:38:36;1.20;;;1.20;;
21886;SDS011;11108;49.988;8.182;2023-08-01T05:41:01;1.30;;;1.20;;
21886;SDS011;11108;49.988;8.182;2023-08-01T05:43:26;1.10;;;1.10;;
21886;SDS011;11108;49.988;8.182;2023-08-01T05:45:52;1.33;;;1.30;;
21886;SDS011;11108;49.988;8.182;2023-08-01T05:48:17;1.50;;;1.10;;
21886;SDS011;11108;49.988;8.182;2023-08-01T05:50:42;1.40;;;1.30;;
21886;SDS011;11108;49.988;8.182;2023-08-01T05:53:07;1.30;;;1.20;;
21886;SDS011;11108;49.988;8.182;2023-08-01T05:55:33;1.70;;;1.60;;
21886;SDS011;11108;49.988;8.182;2023-08-01T05:57:58;1.42;;;1.33;;
21886;SDS011;11108;49.988;8.182;2023-08-01T06:00:23;1.20;;;1.20;;
21886;SDS011;11108;49.988;8.182;2023-08-01T06:02:49;1.40;;;1.30;;
21886;SDS011;11108;49.988;8.182;2023-08-01T06:05:14;0.90;;;0.90;;
21886;SDS011;11108;49.988;8.182;2023-08-01T06:07:39;1.30;;;1.20;;
21886;SDS011;11108;49.988;8.182;2023-08-01T06:10:05;1.05;;;1.05;;
21886;SDS011;11108;49.988;8.182;2023-08-01T06:12:30;1.00;;;1.00;;
21886;SDS011;11108;49.988;8.182;2023-08-01T06:14:55;1.00;;;1.00;;
21886;SDS011;11108;49.988;8.182;2023-08-01T06:17:21;0.90;;;0.90;;
21886;SDS011;11108;49.988;8.182;2023-08-01T06:19:46;0.97;;;0.97;;
21886;SDS011;11108;49.988;8.182;2023-08-01T06:22:11;0.83;;;0.83;;
21886;SDS011;11108;49.988;8.182;2023-08-01T06:24:36;1.10;;;1.10;;
21886;SDS011;11108;49.988;8.182;2023-08-01T06:27:02;1.03;;;1.03;;
21886;SDS011;11108;49.988;8.182;2023-08-01T06:29:27;1.00;;;1.00;;
21886;SDS011;11108;49.988;8.182;2023-08-01T06:31:52;1.10;;;1.10;;
21886;SDS011;11108;49.988;8.182;2023-08-01T06:34:17;1.10;;;1.10;;
21886;SDS011;11108;49.988;8.182;2023-08-01T06:36:42;0.93;;;0.93;;
21886;SDS011;11108;49.988;8.182;2023-08-01T06:39:08;1.00;;;1.00;;
21886;SDS011;11108;49.988;8.182;2023-08-01T06:41:33;0.80;;;0.80;;
21886;SDS011;11108;49.988;8.182;2023-08-01T06:43:58;1.07;;;1.07;;
21886;SDS011;11108;49.988;8.182;2023-08-01T06:46:23;1.25;;;1.15;;
21886;SDS011;11108;49.988;8.182;2023-08-01T06:48:48;1.10;;;1.10;;
21886;SDS011;11108;49.988;8.182;2023-08-01T06:51:14;0.97;;;0.97;;
21886;SDS011;11108;49.988;8.182;2023-08-01T06:53:39;1.00;;;1.00;;
21886;SDS011;11108;49.988;8.182;2023-08-01T06:56:04;0.83;;;0.83;;
21886;SDS011;11108;49.988;8.182;2023-08-01T06:58:29;0.90;;;0.90;;
21886;SDS011;11108;49.988;8.182;2023-08-01T07:00:54;1.10;;;1.00;;
21886;SDS011;11108;49.988;8.182;2023-08-01T07:03:20;0.90;;;0.90;;
21886;SDS011;11108;49.988;8.182;2023-08-01T07:05:45;0.90;;;0.90;;
21886;SDS011;11108;49.988;8.182;2023-08-01T07:08:10;1.00;;;0.80;;
21886;SDS011;11108;49.988;8.182;2023-08-01T07:10:35;0.97;;;0.97;;
21886;SDS011;11108;49.988;8.182;2023-08-01T07:13:01;0.87;;;0.87;;
21886;SDS011;11108;49.988;8.182;2023-08-01T07:15:28;1.00;;;1.00;;
21886;SDS011;11108;49.988;8.182;2023-08-01T07:17:54;0.82;;;0.82;;
21886;SDS011;11108;49.988;8.182;2023-08-01T07:20:19;1.02;;;1.02;;
21886;SDS011;11108;49.988;8.182;2023-08-01T07:22:44;0.90;;;0.90;;
21886;SDS011;11108;49.988;8.182;2023-08-01T07:25:09;1.27;;;1.17;;
21886;SDS011;11108;49.988;8.182;2023-08-01T07:27:36;0.70;;;0.70;;
21886;SDS011;11108;49.988;8.182;2023-08-01T07:30:02;0.90;;;0.90;;
21886;SDS011;11108;49.988;8.182;2023-08-01T07:32:28;0.80;;;0.80;;
21886;SDS011;11108;49.988;8.182;2023-08-01T07:34:53;0.70;;;0.70;;
21886;SDS011;11108;49.988;8.182;2023-08-01T07:37:18;1.13;;;0.98;;
21886;SDS011;11108;49.988;8.182;2023-08-01T07:39:43;0.70;;;0.70;;
21886;SDS011;11108;49.988;8.182;2023-08-01T07:42:08;0.80;;;0.80;;
21886;SDS011;11108;49.988;8.182;2023-08-01T07:44:33;0.80;;;0.80;;
21886;SDS011;11108;49.988;8.182;2023-08-01T07:46:59;0.85;;;0.85;;
21886;SDS011;11108;49.988;8.182;2023-08-01T07:49:24;1.33;;;1.00;;
21886;SDS011;11108;49.988;8.182;2023-08-01T07:51:49;0.90;;;0.90;;
21886;SDS011;11108;49.988;8.182;2023-08-01T07:54:14;0.77;;;0.77;;
21886;SDS011;11108;49.988;8.182;2023-08-01T07:56:39;0.90;;;0.90;;
21886;SDS011;11108;49.988;8.182;2023-08-01T07:59:05;0.97;;;0.97;;
21886;SDS011;11108;49.988;8.182;2023-08-01T08:01:30;0.80;;;0.80;;
21886;SDS011;11108;49.988;8.182;2023-08-01T08:03:55;0.80;;;0.80;;
21886;SDS011;11108;49.988;8.182;2023-08-01T08:06:20;0.85;;;0.85;;
21886;SDS011;11108;49.988;8.182;2023-08-01T08:08:46;0.85;;;0.80;;
21886;SDS011;11108;49.988;8.182;2023-08-01T08:11:11;0.65;;;0.65;;
21886;SDS011;11108;49.988;8.182;2023-08-01T08:13:37;1.60;;;0.67;;
21886;SDS011;11108;49.988;8.182;2023-08-01T08:16:02;0.70;;;0.70;;
21886;SDS011;11108;49.988;8.182;2023-08-01T08:18:29;0.70;;;0.70;;
21886;SDS011;11108;49.988;8.182;2023-08-01T08:20:54;0.80;;;0.80;;
21886;SDS011;11108;49.988;8.182;2023-08-01T08:23:19;0.80;;;0.80;;
21886;SDS011;11108;49.988;8.182;2023-08-01T08:25:45;0.68;;;0.68;;
21886;SDS011;11108;49.988;8.182;2023-08-01T08:28:12;0.80;;;0.80;;
21886;SDS011;11108;49.988;8.182;2023-08-01T08:30:37;0.80;;;0.80;;
21886;SDS011;11108;49.988;8.182;2023-08-01T08:33:03;0.80;;;0.80;;
21886;SDS011;11108;49.988;8.182;2023-08-01T08:35:30;0.85;;;0.85;;
21886;SDS011;11108;49.988;8.182;2023-08-01T08:37:55;0.80;;;0.70;;
21886;SDS011;11108;49.988;8.182;2023-08-01T08:40:20;0.80;;;0.80;;
21886;SDS011;11108;49.988;8.182;2023-08-01T08:42:45;0.80;;;0.80;;
21886;SDS011;11108;49.988;8.182;2023-08-01T08:45:11;0.65;;;0.65;;
21886;SDS011;11108;49.988;8.182;2023-08-01T08:47:38;0.80;;;0.80;;
21886;SDS011;11108;49.988;8.182;2023-08-01T08:50:06;0.80;;;0.68;;
21886;SDS011;11108;49.988;8.182;2023-08-01T08:52:33;0.70;;;0.70;;
21886;SDS011;11108;49.988;8.182;2023-08-01T08:54:58;0.95;;;0.77;;
21886;SDS011;11108;49.988;8.182;2023-08-01T08:57:23;0.80;;;0.70;;
21886;SDS011;11108;49.988;8.182;2023-08-01T08:59:48;1.13;;;0.75;;
21886;SDS011;11108;49.988;8.182;2023-08-01T09:02:14;0.95;;;0.95;;
21886;SDS011;11108;49.988;8.182;2023-08-01T09:04:40;0.90;;;0.90;;
21886;SDS011;11108;49.988;8.182;2023-08-01T09:07:07;0.75;;;0.75;;
21886;SDS011;11108;49.988;8.182;2023-08-01T09:09:33;1.17;;;0.70;;
21886;SDS011;11108;49.988;8.182;2023-08-01T09:11:59;0.82;;;0.82;;
21886;SDS011;11108;49.988;8.182;2023-08-01T09:14:24;0.70;;;0.70;;
21886;SDS011;11108;49.988;8.182;2023-08-01T09:16:49;0.65;;;0.65;;
21886;SDS011;11108;49.988;8.182;2023-08-01T09:19:18;0.90;;;0.80;;
21886;SDS011;11108;49.988;8.182;2023-08-01T09:21:44;1.00;;;1.00;;
21886;SDS011;11108;49.988;8.182;2023-08-01T09:24:18;0.60;;;0.60;;
21886;SDS011;11108;49.988;8.182;2023-08-01T09:26:45;0.60;;;0.60;;
21886;SDS011;11108;49.988;8.182;2023-08-01T09:29:10;0.88;;;0.85;;
21886;SDS011;11108;49.988;8.182;2023-08-01T09:31:37;0.70;;;0.70;;
21886;SDS011;11108;49.988;8.182;2023-08-01T09:34:03;0.75;;;0.75;;
21886;SDS011;11108;49.988;8.182;2023-08-01T09:36:34;0.70;;;0.70;;
21886;SDS011;11108;49.988;8.182;2023-08-01T09:39:00;0.98;;;0.98;;
21886;SDS011;11108;49.988;8.182;2023-08-01T09:41:26;0.93;;;0.93;;
21886;SDS011;11108;49.988;8.182;2023-08-01T09:43:51;0.87;;;0.87;;
21886;SDS011;11108;49.988;8.182;2023-08-01T09:46:16;1.23;;;0.90;;
21886;SDS011;11108;49.988;8.182;2023-08-01T09:48:42;0.93;;;0.93;;
21886;SDS011;11108;49.988;8.182;2023-08-01T09:51:09;0.93;;;0.93;;
21886;SDS011;11108;49.988;8.182;2023-08-01T09:53:35;1.05;;;1.05;;
21886;SDS011;11108;49.988;8.182;2023-08-01T09:56:01;0.73;;;0.73;;
21886;SDS011;11108;49.988;8.182;2023-08-01T09:58:29;1.10;;;1.00;;
21886;SDS011;11108;49.988;8.182;2023-08-01T10:00:56;0.80;;;0.80;;
21886;SDS011;11108;49.988;8.182;2023-08-01T10:03:21;0.90;;;0.90;;
21886;SDS011;11108;49.988;8.182;2023-08-01T10:05:47;0.95;;;0.95;;
21886;SDS011;11108;49.988;8.182;2023-08-01T10:08:12;1.08;;;1.08;;
21886;SDS011;11108;49.988;8.182;2023-08-01T10:10:37;0.85;;;0.85;;
21886;SDS011;11108;49.988;8.182;2023-08-01T10:13:03;0.80;;;0.80;;
21886;SDS011;11108;49.988;8.182;2023-08-01T10:15:28;0.90;;;0.90;;
21886;SDS011;11108;49.988;8.182;2023-08-01T10:17:53;0.93;;;0.90;;
21886;SDS011;11108;49.988;8.182;2023-08-01T10:20:19;1.63;;;1.10;;
21886;SDS011;11108;49.988;8.182;2023-08-01T10:22:46;1.27;;;0.80;;
21886;SDS011;11108;49.988;8.182;2023-08-01T10:25:12;1.58;;;1.23;;
21886;SDS011;11108;49.988;8.182;2023-08-01T10:27:38;1.10;;;1.10;;
21886;SDS011;11108;49.988;8.182;2023-08-01T10:30:04;1.27;;;1.17;;
21886;SDS011;11108;49.988;8.182;2023-08-01T10:32:31;1.02;;;1.02;;
21886;SDS011;11108;49.988;8.182;2023-08-01T10:34:56;1.20;;;1.10;;
21886;SDS011;11108;49.988;8.182;2023-08-01T10:37:21;1.40;;;1.30;;
21886;SDS011;11108;49.988;8.182;2023-08-01T10:39:55;0.93;;;0.93;;
21886;SDS011;11108;49.988;8.182;2023-08-01T10:42:20;1.42;;;1.33;;
21886;SDS011;11108;49.988;8.182;2023-08-01T10:44:46;1.08;;;1.00;;
21886;SDS011;11108;49.988;8.182;2023-08-01T10:47:11;1.00;;;1.00;;
21886;SDS011;11108;49.988;8.182;2023-08-01T10:49:37;1.10;;;1.00;;
21886;SDS011;11108;49.988;8.182;2023-08-01T10:52:03;1.23;;;1.13;;
21886;SDS011;11108;49.988;8.182;2023-08-01T10:54:29;1.25;;;0.93;;
21886;SDS011;11108;49.988;8.182;2023-08-01T10:56:57;1.10;;;1.10;;
21886;SDS011;11108;49.988;8.182;2023-08-01T10:59:27;1.77;;;1.25;;
21886;SDS011;11108;49.988;8.182;2023-08-01T11:01:53;1.23;;;1.23;;
21886;SDS011;11108;49.988;8.182;2023-08-01T11:04:19;1.50;;;1.40;;
21886;SDS011;11108;49.988;8.182;2023-08-01T11:06:52;1.10;;;1.10;;
21886;SDS011;11108;49.988;8.182;2023-08-01T11:09:21;1.17;;;1.07;;
21886;SDS011;11108;49.988;8.182;2023-08-01T11:11:48;1.10;;;1.10;;
21886;SDS011;11108;49.988;8.182;2023-08-01T11:14:14;1.43;;;1.10;;
21886;SDS011;11108;49.988;8.182;2023-08-01T11:16:40;1.33;;;1.23;;
21886;SDS011;11108;49.988;8.182;2023-08-01T11:19:05;1.30;;;1.30;;
21886;SDS011;11108;49.988;8.182;2023-08-01T11:21:30;0.90;;;0.90;;
21886;SDS011;11108;49.988;8.182;2023-08-01T11:23:56;1.42;;;1.10;;
21886;SDS011;11108;49.988;8.182;2023-08-01T11:26:21;1.80;;;1.30;;
21886;SDS011;11108;49.988;8.182;2023-08-01T11:28:46;1.13;;;1.10;;
21886;SDS011;11108;49.988;8.182;2023-08-01T11:31:12;1.37;;;1.00;;
21886;SDS011;11108;49.988;8.182;2023-08-01T11:33:37;1.43;;;1.20;;
21886;SDS011;11108;49.988;8.182;2023-08-01T11:36:03;1.30;;;1.20;;
21886;SDS011;11108;49.988;8.182;2023-08-01T11:38:29;1.40;;;1.20;;
21886;SDS011;11108;49.988;8.182;2023-08-01T11:40:56;1.27;;;1.17;;
21886;SDS011;11108;49.988;8.182;2023-08-01T11:43:21;1.03;;;1.00;;
21886;SDS011;11108;49.988;8.182;2023-08-01T11:45:53;1.20;;;1.10;;
21886;SDS011;11108;49.988;8.182;2023-08-01T11:48:20;1.00;;;1.00;;
21886;SDS011;11108;49.988;8.182;2023-08-01T11:50:45;1.33;;;1.23;;
21886;SDS011;11108;49.988;8.182;2023-08-01T11:53:20;0.88;;;0.88;;
21886;SDS011;11108;49.988;8.182;2023-08-01T11:55:46;1.93;;;1.43;;
21886;SDS011;11108;49.988;8.182;2023-08-01T11:58:11;1.40;;;1.30;;
21886;SDS011;11108;49.988;8.182;2023-08-01T12:00:39;1.67;;;1.20;;
21886;SDS011;11108;49.988;8.182;2023-08-01T12:03:08;1.73;;;1.50;;
21886;SDS011;11108;49.988;8.182;2023-08-01T12:05:37;1.67;;;1.10;;
21886;SDS011;11108;49.988;8.182;2023-08-01T12:08:12;1.33;;;1.23;;
21886;SDS011;11108;49.988;8.182;2023-08-01T12:10:38;1.60;;;1.43;;
21886;SDS011;11108;49.988;8.182;2023-08-01T12:13:04;1.27;;;1.25;;
21886;SDS011;11108;49.988;8.182;2023-08-01T12:15:29;1.10;;;1.10;;
21886;SDS011;11108;49.988;8.182;2023-08-01T12:17:54;1.47;;;1.20;;
21886;SDS011;11108;49.988;8.182;2023-08-01T12:20:19;1.07;;;1.07;;
21886;SDS011;11108;49.988;8.182;2023-08-01T12:22:44;1.33;;;1.23;;
21886;SDS011;11108;49.988;8.182;2023-08-01T12:25:10;1.35;;;1.27;;
21886;SDS011;11108;49.988;8.182;2023-08-01T12:27:35;1.20;;;1.20;;
21886;SDS011;11108;49.988;8.182;2023-08-01T12:30:00;1.27;;;1.20;;
21886;SDS011;11108;49.988;8.182;2023-08-01T12:32:25;1.60;;;1.37;;
21886;SDS011;11108;49.988;8.182;2023-08-01T12:34:50;1.27;;;1.20;;
21886;SDS011;11108;49.988;8.182;2023-08-01T12:37:16;1.92;;;1.27;;
21886;SDS011;11108;49.988;8.182;2023-08-01T12:39:41;1.73;;;1.47;;
21886;SDS011;11108;49.988;8.182;2023-08-01T12:42:06;1.33;;;1.30;;
21886;SDS011;11108;49.988;8.182;2023-08-01T12:44:31;1.15;;;1.00;;
21886;SDS011;11108;49.988;8.182;2023-08-01T12:46:56;1.40;;;1.30;;
21886;SDS011;11108;49.988;8.182;2023-08-01T12:49:23;1.57;;;1.47;;
21886;SDS011;11108;49.988;8.182;2023-08-01T12:51:48;1.50;;;1.40;;
21886;SDS011;11108;49.988;8.182;2023-08-01T12:54:13;1.33;;;1.23;;
21886;SDS011;11108;49.988;8.182;2023-08-01T12:56:38;1.13;;;1.13;;
21886;SDS011;11108;49.988;8.182;2023-08-01T12:59:04;1.33;;;1.20;;
21886;SDS011;11108;49.988;8.182;2023-08-01T13:01:29;1.50;;;1.40;;
21886;SDS011;11108;49.988;8.182;2023-08-01T13:03:54;2.80;;;1.40;;
21886;SDS011;11108;49.988;8.182;2023-08-01T13:06:19;1.10;;;1.10;;
21886;SDS011;11108;49.988;8.182;2023-08-01T13:08:44;1.70;;;1.60;;
21886;SDS011;11108;49.988;8.182;2023-08-01T13:11:10;1.70;;;1.53;;
21886;SDS011;11108;49.988;8.182;2023-08-01T13:13:37;1.13;;;1.13;;
21886;SDS011;11108;49.988;8.182;2023-08-01T13:16:02;1.73;;;1.20;;
21886;SDS011;11108;49.988;8.182;2023-08-01T13:18:27;1.30;;;1.30;;
21886;SDS011;11108;49.988;8.182;2023-08-01T13:20:52;1.40;;;1.30;;
21886;SDS011;11108;49.988;8.182;2023-08-01T13:23:18;1.30;;;1.20;;
21886;SDS011;11108;49.988;8.182;2023-08-01T13:25:43;1.13;;;1.13;;
21886;SDS011;11108;49.988;8.182;2023-08-01T13:28:11;1.37;;;1.33;;
21886;SDS011;11108;49.988;8.182;2023-08-01T13:30:36;1.40;;;1.30;;
21886;SDS011;11108;49.988;8.182;2023-08-01T13:33:01;1.70;;;1.60;;
21886;SDS011;11108;49.988;8.182;2023-08-01T13:35:27;1.27;;;1.17;;
21886;SDS011;11108;49.988;8.182;2023-08-01T13:37:52;1.20;;;1.10;;
21886;SDS011;11108;49.988;8.182;2023-08-01T13:40:17;1.45;;;1.35;;
21886;SDS011;11108;49.988;8.182;2023-08-01T13:42:42;1.25;;;1.23;;
21886;SDS011;11108;49.988;8.182;2023-08-01T13:45:08;1.45;;;1.45;;
21886;SDS011;11108;49.988;8.182;2023-08-01T13:47:33;1.05;;;1.05;;
21886;SDS011;11108;49.988;8.182;2023-08-01T13:49:58;2.30;;;1.50;;
21886;SDS011;11108;49.988;8.182;2023-08-01T13:52:23;1.57;;;1.47;;
21886;SDS011;11108;49.988;8.182;2023-08-01T13:54:49;1.30;;;1.20;;
21886;SDS011;11108;49.988;8.182;2023-08-01T13:57:14;1.05;;;1.05;;
21886;SDS011;11108;49.988;8.182;2023-08-01T13:59:39;1.50;;;1.40;;
21886;SDS011;11108;49.988;8.182;2023-08-01T14:02:04;1.50;;;1.40;;
21886;SDS011;11108;49.988;8.182;2023-08-01T14:04:30;1.47;;;1.23;;
21886;SDS011;11108;49.988;8.182;2023-08-01T14:06:55;1.80;;;1.30;;
21886;SDS011;11108;49.988;8.182;2023-08-01T14:09:20;1.40;;;1.30;;
21886;SDS011;11108;49.988;8.182;2023-08-01T14:11:45;2.17;;;1.40;;
21886;SDS011;11108;49.988;8.182;2023-08-01T14:14:11;1.70;;;1.15;;
21886;SDS011;11108;49.988;8.182;2023-08-01T14:16:36;2.10;;;1.50;;
21886;SDS011;11108;49.988;8.182;2023-08-01T14:19:01;1.30;;;1.20;;
21886;SDS011;11108;49.988;8.182;2023-08-01T14:21:26;1.73;;;1.63;;
21886;SDS011;11108;49.988;8.182;2023-08-01T14:23:51;1.20;;;1.20;;
21886;SDS011;11108;49.988;8.182;2023-08-01T14:26:17;1.60;;;1.40;;
21886;SDS011;11108;49.988;8.182;2023-08-01T14:28:42;1.20;;;1.20;;
21886;SDS011;11108;49.988;8.182;2023-08-01T14:31:07;1.47;;;1.37;;
21886;SDS011;11108;49.988;8.182;2023-08-01T14:33:32;1.30;;;1.20;;
21886;SDS011;11108;49.988;8.182;2023-08-01T14:35:58;1.40;;;1.30;;
21886;SDS011;11108;49.988;8.182;2023-08-01T14:38:23;1.55;;;1.45;;